Airport View

Enter AWOS ICAO identifier for current METAR.

ex. KFNL

KRRL 011255Z AUTO 32004KT 10SM SCT036 BKN047 BKN090 07/05 A2993 RMK AO2 T00720052 TSNO

1 Oct 2020 12:58

Frequency: 119.925

Phone: 715-539-8422

Other Area AWOS: KTKV - KAUW - KCWA - KAIG

TAF KAUW 011139Z 0112/0212 31007KT P6SM SCT025 BKN035 TEMPO 0112/0116 BKN025 FM011600 34009G15KT P6SM VCSH BKN020 FM012100 34010G15KT P6SM BKN040 FM020000 34007KT P6SM SCT060